createdAt,value
2023-10-24T00:00:01.396Z,90.77
2023-10-24T00:02:28.896Z,90.09
2023-10-24T00:04:56.235Z,89.56
2023-10-24T00:07:24.994Z,89.88
2023-10-24T00:09:52.892Z,89.42
2023-10-24T00:12:20.146Z,89.14
2023-10-24T00:14:58.420Z,89.11
2023-10-24T00:17:26.637Z,88.93
2023-10-24T00:19:54.680Z,88.60
2023-10-24T00:22:21.856Z,87.91
2023-10-24T00:24:54.721Z,87.56
2023-10-24T00:27:22.036Z,87.59
2023-10-24T00:29:51.353Z,86.52
2023-10-24T00:32:19.771Z,86.03
2023-10-24T00:34:47.778Z,85.09
2023-10-24T00:37:14.792Z,85.10
2023-10-24T00:39:43.115Z,85.05
2023-10-24T00:42:11.715Z,84.28
2023-10-24T00:44:38.870Z,84.74
2023-10-24T00:47:07.349Z,84.01
2023-10-24T00:49:35.096Z,83.84
2023-10-24T00:52:03.380Z,83.69
2023-10-24T00:54:35.485Z,84.46
2023-10-24T00:57:04.638Z,85.13
2023-10-24T00:59:33.460Z,84.83
2023-10-24T01:02:01.383Z,85.74
2023-10-24T01:04:29.378Z,85.39
2023-10-24T01:06:56.473Z,86.29
2023-10-24T01:09:23.638Z,85.46
2023-10-24T01:11:51.775Z,86.03
2023-10-24T01:14:19.763Z,86.37
2023-10-24T01:16:48.382Z,85.95
2023-10-24T01:19:15.909Z,85.59
2023-10-24T01:21:48.736Z,85.21
2023-10-24T01:24:17.865Z,84.62
2023-10-24T01:26:46.230Z,85.41
2023-10-24T01:29:13.423Z,85.12
2023-10-24T01:31:41.052Z,84.65
2023-10-24T01:34:09.528Z,84.99
2023-10-24T01:36:39.635Z,84.42
2023-10-24T01:39:08.672Z,84.16
2023-10-24T01:41:35.805Z,84.38
2023-10-24T01:44:02.887Z,84.78
2023-10-24T01:46:32.703Z,84.77
2023-10-24T01:49:01.217Z,84.61
2023-10-24T01:51:28.128Z,84.72
2023-10-24T01:53:55.069Z,84.82
2023-10-24T01:56:24.768Z,84.38
2023-10-24T01:58:53.457Z,85.26
2023-10-24T02:01:20.689Z,85.47
2023-10-24T02:03:48.028Z,85.56
2023-10-24T02:06:16.033Z,86.18
2023-10-24T02:08:43.276Z,86.34
2023-10-24T02:11:11.273Z,90.61
2023-10-24T02:13:40.254Z,89.92
2023-10-24T02:16:10.597Z,88.74
2023-10-24T02:18:37.642Z,88.38
2023-10-24T02:21:07.242Z,87.96
2023-10-24T02:23:35.746Z,88.01
2023-10-24T02:26:03.412Z,87.43
2023-10-24T02:28:32.613Z,89.18
2023-10-24T02:31:04.380Z,90.64
2023-10-24T02:33:32.700Z,89.65
2023-10-24T02:36:07.943Z,89.63
2023-10-24T02:38:35.034Z,88.75
2023-10-24T02:41:04.292Z,89.17
2023-10-24T02:43:32.290Z,88.61
2023-10-24T02:46:05.359Z,88.87
2023-10-24T02:48:33.610Z,88.62
2023-10-24T02:51:01.713Z,88.17
2023-10-24T02:53:29.001Z,88.42
2023-10-24T02:56:02.629Z,88.35
2023-10-24T02:58:30.019Z,88.24
2023-10-24T03:01:05.262Z,88.42
2023-10-24T03:03:35.214Z,88.46
2023-10-24T03:06:23.200Z,88.66
2023-10-24T03:08:50.936Z,88.52
2023-10-24T03:11:23.041Z,88.39
2023-10-24T03:13:55.302Z,88.42
2023-10-24T03:16:24.774Z,88.32
2023-10-24T03:18:52.408Z,88.12
2023-10-24T03:21:20.150Z,88.47
2023-10-24T03:23:47.127Z,89.12
2023-10-24T03:26:14.064Z,90.28
2023-10-24T03:28:41.554Z,89.98
2023-10-24T03:31:10.479Z,90.19
2023-10-24T03:33:47.390Z,89.95
2023-10-24T03:36:15.595Z,90.46
2023-10-24T03:38:43.189Z,89.80
2023-10-24T03:41:10.463Z,89.59
2023-10-24T03:43:38.335Z,89.26
2023-10-24T03:46:08.686Z,89.02
2023-10-24T03:48:35.702Z,88.50
2023-10-24T03:51:04.328Z,88.18
2023-10-24T03:53:31.714Z,88.64
2023-10-24T03:56:01.324Z,88.32
2023-10-24T03:58:29.388Z,88.41
2023-10-24T04:01:03.197Z,88.41
2023-10-24T04:03:30.712Z,88.65
2023-10-24T04:05:57.693Z,88.75
2023-10-24T04:08:26.032Z,88.18
2023-10-24T04:10:53.471Z,88.56
2023-10-24T04:13:21.223Z,88.86
2023-10-24T04:15:57.344Z,88.39
2023-10-24T04:18:26.182Z,88.75
2023-10-24T04:20:53.214Z,88.78
2023-10-24T04:23:20.656Z,89.57
2023-10-24T04:25:49.122Z,89.35
2023-10-24T04:28:17.568Z,89.73
2023-10-24T04:30:46.056Z,90.24
2023-10-24T04:33:13.797Z,90.78
2023-10-24T04:35:47.016Z,90.36
2023-10-24T04:38:14.557Z,90.92
2023-10-24T04:40:43.848Z,90.17
2023-10-24T04:43:14.156Z,90.46
2023-10-24T04:45:42.172Z,89.90
2023-10-24T04:48:10.266Z,89.91
2023-10-24T04:50:38.851Z,89.84
2023-10-24T04:53:06.415Z,89.76
2023-10-24T04:55:34.061Z,90.05
2023-10-24T04:58:01.385Z,89.68
2023-10-24T05:00:32.735Z,89.77
2023-10-24T05:03:00.528Z,89.68
2023-10-24T05:05:30.020Z,89.71
2023-10-24T05:07:57.051Z,89.31
2023-10-24T05:10:24.086Z,89.87
2023-10-24T05:12:51.434Z,89.95
2023-10-24T05:15:20.644Z,89.90
2023-10-24T05:17:50.555Z,90.23
2023-10-24T05:20:18.976Z,90.63
2023-10-24T05:22:46.156Z,90.39
2023-10-24T05:25:13.276Z,90.32
2023-10-24T05:27:40.189Z,89.68
2023-10-24T05:30:09.607Z,90.63
2023-10-24T05:32:38.832Z,90.57
2023-10-24T05:35:08.123Z,90.20
2023-10-24T05:37:37.733Z,92.66
2023-10-24T05:40:06.500Z,93.29
2023-10-24T05:42:33.963Z,92.55
2023-10-24T05:45:01.142Z,91.41
2023-10-24T05:47:28.726Z,90.12
2023-10-24T05:49:55.813Z,90.58
2023-10-24T05:52:25.128Z,92.88
2023-10-24T05:54:52.539Z,93.21
2023-10-24T05:57:20.087Z,92.74
2023-10-24T05:59:49.777Z,94.72
2023-10-24T06:02:16.900Z,94.88
2023-10-24T06:04:44.357Z,93.77
2023-10-24T06:07:12.199Z,93.52
2023-10-24T06:09:41.821Z,93.58
2023-10-24T06:12:10.617Z,93.02
2023-10-24T06:14:37.718Z,91.91
2023-10-24T06:17:05.253Z,90.74
2023-10-24T06:19:32.319Z,90.39
2023-10-24T06:22:00.590Z,89.25
2023-10-24T06:24:32.645Z,90.66
2023-10-24T06:27:13.007Z,89.93
2023-10-24T06:29:40.424Z,89.43
2023-10-24T06:32:08.841Z,89.92
2023-10-24T06:34:41.762Z,88.41
2023-10-24T06:37:10.531Z,87.41
2023-10-24T06:39:37.924Z,88.84
2023-10-24T06:42:06.721Z,87.96
2023-10-24T06:44:33.826Z,86.47
2023-10-24T06:47:02.040Z,85.67
2023-10-24T06:49:32.920Z,85.41
2023-10-24T06:52:00.223Z,87.43
2023-10-24T06:54:37.945Z,86.08
2023-10-24T06:57:35.028Z,85.40
2023-10-24T07:00:12.617Z,85.63
2023-10-24T07:05:23.192Z,87.06
2023-10-24T07:07:51.167Z,87.78
2023-10-24T07:10:20.848Z,88.14
2023-10-24T07:15:32.314Z,86.53
2023-10-24T07:17:59.809Z,86.70
2023-10-24T07:20:34.865Z,86.68
2023-10-24T07:23:03.354Z,87.23
2023-10-24T07:25:30.732Z,85.29
2023-10-24T07:28:03.645Z,85.47
2023-10-24T07:30:31.156Z,87.01
2023-10-24T07:32:59.319Z,88.96
2023-10-24T07:35:26.663Z,90.12
2023-10-24T07:37:55.067Z,91.21
2023-10-24T07:40:22.030Z,91.63
2023-10-24T07:42:49.155Z,92.38
2023-10-24T07:45:20.805Z,93.02
2023-10-24T07:47:48.163Z,91.92
2023-10-24T07:50:15.294Z,90.85
2023-10-24T07:52:42.465Z,91.04
2023-10-24T07:55:10.085Z,89.81
2023-10-24T07:57:37.664Z,88.61
2023-10-24T08:00:06.737Z,88.31
2023-10-24T08:02:41.812Z,88.16
2023-10-24T08:05:09.704Z,88.04
2023-10-24T08:07:36.630Z,87.78
2023-10-24T08:10:04.076Z,87.79
2023-10-24T08:12:31.200Z,87.87
2023-10-24T08:15:00.762Z,87.76
2023-10-24T08:17:27.778Z,87.70
2023-10-24T08:19:56.428Z,87.47
2023-10-24T08:22:23.856Z,87.13
2023-10-24T08:24:51.451Z,87.26
2023-10-24T08:27:18.656Z,87.32
2023-10-24T08:29:45.546Z,87.24
2023-10-24T08:32:15.561Z,87.44
2023-10-24T08:34:43.467Z,87.26
2023-10-24T08:37:12.946Z,87.41
2023-10-24T08:39:40.379Z,87.39
2023-10-24T08:42:11.271Z,87.29
2023-10-24T08:44:41.325Z,87.50
2023-10-24T08:47:11.533Z,87.44
2023-10-24T08:49:40.050Z,87.72
2023-10-24T08:52:22.579Z,87.38
2023-10-24T08:54:55.545Z,87.80
2023-10-24T08:57:28.986Z,87.92
2023-10-24T08:59:58.531Z,88.03
2023-10-24T09:02:26.266Z,87.55
2023-10-24T09:04:53.360Z,87.70
2023-10-24T09:07:20.469Z,87.98
2023-10-24T09:09:50.174Z,88.47
2023-10-24T09:12:18.846Z,89.71
2023-10-24T09:14:54.109Z,90.89
2023-10-24T09:17:27.173Z,91.82
2023-10-24T09:19:56.973Z,92.44
2023-10-24T09:22:28.875Z,94.48
2023-10-24T09:24:57.955Z,97.57
2023-10-24T09:27:29.619Z,98.88
2023-10-24T09:29:57.556Z,99.95
2023-10-24T09:32:26.581Z,100.00
2023-10-24T09:34:54.400Z,100.00
2023-10-24T09:37:21.461Z,100.00
2023-10-24T09:39:57.061Z,100.00
2023-10-24T09:42:31.660Z,100.00
2023-10-24T09:45:03.411Z,100.00
2023-10-24T09:47:34.215Z,100.00
2023-10-24T09:50:04.222Z,100.00
2023-10-24T09:52:32.817Z,100.00
2023-10-24T09:55:01.650Z,100.00
2023-10-24T09:57:32.742Z,100.00
2023-10-24T10:00:01.128Z,100.00
2023-10-24T10:02:29.227Z,100.00
2023-10-24T10:04:56.924Z,100.00
2023-10-24T10:07:27.062Z,100.00
2023-10-24T10:09:55.621Z,96.33
2023-10-24T10:12:23.953Z,96.75
2023-10-24T10:15:27.559Z,98.36
2023-10-24T10:18:15.767Z,98.05
2023-10-24T10:21:06.869Z,98.09
2023-10-24T10:24:12.703Z,98.42
2023-10-24T10:27:02.569Z,98.12
2023-10-24T10:29:48.756Z,97.70
2023-10-24T10:32:38.162Z,98.22
2023-10-24T10:35:22.570Z,99.04
2023-10-24T10:38:01.569Z,98.92
2023-10-24T10:40:29.811Z,99.49
2023-10-24T10:42:57.130Z,99.74
2023-10-24T10:45:29.951Z,100.00
2023-10-24T10:48:01.659Z,99.86
2023-10-24T10:50:30.286Z,99.70
2023-10-24T10:53:21.204Z,98.49
2023-10-24T10:56:18.274Z,98.25
2023-10-24T10:59:18.028Z,98.47
2023-10-24T11:02:03.367Z,99.18
2023-10-24T11:04:33.226Z,98.60
2023-10-24T11:07:01.793Z,98.49
2023-10-24T11:09:35.667Z,99.92
2023-10-24T11:12:27.847Z,99.63
2023-10-24T11:15:25.362Z,100.00
2023-10-24T11:17:54.716Z,100.00
2023-10-24T11:20:25.803Z,100.00
2023-10-24T11:22:53.002Z,100.00
2023-10-24T11:25:22.792Z,100.00
2023-10-24T11:27:50.262Z,100.00
2023-10-24T11:30:17.702Z,100.00
2023-10-24T11:32:46.927Z,100.00
2023-10-24T11:35:13.918Z,100.00
2023-10-24T11:37:42.695Z,100.00
2023-10-24T11:40:10.952Z,100.00
2023-10-24T11:42:37.957Z,100.00
2023-10-24T11:45:06.427Z,99.87
2023-10-24T11:47:34.173Z,100.00
2023-10-24T11:50:02.490Z,100.00
2023-10-24T11:52:32.496Z,100.00
2023-10-24T11:55:02.805Z,100.00
2023-10-24T11:57:32.288Z,100.00
2023-10-24T11:59:59.886Z,100.00
2023-10-24T12:02:27.133Z,100.00
2023-10-24T12:04:58.097Z,99.63
2023-10-24T12:07:27.458Z,99.66
2023-10-24T12:10:10.677Z,99.73
2023-10-24T12:12:38.028Z,99.00
2023-10-24T12:15:07.509Z,99.35
2023-10-24T12:17:36.242Z,100.00
2023-10-24T12:20:10.528Z,100.00
2023-10-24T12:22:37.985Z,100.00
2023-10-24T12:25:08.879Z,100.00
2023-10-24T12:27:37.128Z,100.00
2023-10-24T12:30:05.774Z,100.00
2023-10-24T12:32:32.836Z,100.00
2023-10-24T12:35:00.536Z,100.00
2023-10-24T12:37:27.518Z,98.74
2023-10-24T12:39:55.328Z,100.00
2023-10-24T12:42:23.605Z,100.00
2023-10-24T12:44:52.187Z,99.46
2023-10-24T12:47:19.655Z,100.00
2023-10-24T12:49:47.220Z,99.39
2023-10-24T12:52:16.377Z,100.00
2023-10-24T12:54:44.260Z,100.00
2023-10-24T12:57:11.536Z,100.00
2023-10-24T12:59:38.794Z,100.00
2023-10-24T13:02:07.465Z,100.00
2023-10-24T13:04:35.153Z,100.00
2023-10-24T13:07:03.995Z,100.00
2023-10-24T13:09:31.698Z,100.00
2023-10-24T13:12:00.756Z,100.00
2023-10-24T13:14:27.715Z,100.00
2023-10-24T13:17:12.903Z,100.00
2023-10-24T13:19:47.760Z,100.00
2023-10-24T13:22:14.990Z,100.00
2023-10-24T13:24:42.017Z,100.00
2023-10-24T13:27:10.146Z,100.00
2023-10-24T13:29:37.521Z,100.00
2023-10-24T13:32:06.520Z,100.00
2023-10-24T13:37:05.466Z,100.00
2023-10-24T13:39:32.542Z,100.00
2023-10-24T13:42:00.014Z,100.00
2023-10-24T13:44:27.359Z,100.00
2023-10-24T13:46:56.112Z,100.00
2023-10-24T13:49:23.396Z,100.00
2023-10-24T13:51:53.217Z,100.00
2023-10-24T13:54:21.733Z,100.00
2023-10-24T13:56:50.104Z,100.00
2023-10-24T13:59:20.938Z,100.00
2023-10-24T14:01:50.732Z,100.00
2023-10-24T14:04:20.996Z,100.00
2023-10-24T14:06:49.674Z,100.00
2023-10-24T14:09:18.185Z,100.00
2023-10-24T14:11:47.332Z,100.00
2023-10-24T14:14:16.339Z,100.00
2023-10-24T14:16:44.303Z,100.00
2023-10-24T14:19:11.583Z,100.00
2023-10-24T14:21:39.062Z,99.17
2023-10-24T14:24:08.141Z,100.00
2023-10-24T14:26:36.005Z,100.00
2023-10-24T14:29:06.892Z,100.00
2023-10-24T14:31:35.569Z,98.88
2023-10-24T14:34:03.378Z,99.28
2023-10-24T14:36:30.985Z,99.53
2023-10-24T14:38:58.100Z,98.22
2023-10-24T14:41:25.065Z,98.88
2023-10-24T14:43:52.377Z,99.50
2023-10-24T14:46:23.713Z,99.59
2023-10-24T14:48:52.405Z,99.20
2023-10-24T14:51:19.677Z,99.16
2023-10-24T14:53:46.582Z,99.79
2023-10-24T14:56:13.742Z,100.00
2023-10-24T14:58:41.155Z,100.00
2023-10-24T15:01:09.718Z,99.92
2023-10-24T15:03:38.576Z,99.84
2023-10-24T15:06:07.464Z,99.32
2023-10-24T15:08:34.735Z,98.93
2023-10-24T15:11:02.144Z,98.95
2023-10-24T15:13:29.049Z,98.26
2023-10-24T15:15:57.870Z,98.97
2023-10-24T15:18:24.864Z,98.67
2023-10-24T15:20:53.407Z,98.13
2023-10-24T15:23:21.919Z,97.84
2023-10-24T15:25:51.340Z,97.92
2023-10-24T15:28:19.371Z,97.66
2023-10-24T15:30:46.671Z,97.60
2023-10-24T15:33:13.631Z,97.26
2023-10-24T15:35:40.587Z,97.09
2023-10-24T15:38:11.724Z,96.55
2023-10-24T15:40:39.328Z,96.14
2023-10-24T15:43:07.704Z,96.31
2023-10-24T15:45:34.994Z,95.99
2023-10-24T15:48:03.655Z,95.46
2023-10-24T15:50:30.584Z,95.59
2023-10-24T15:52:57.954Z,95.39
2023-10-24T15:55:27.872Z,94.88
2023-10-24T15:57:57.869Z,95.04
2023-10-24T16:00:29.697Z,94.75
2023-10-24T16:02:57.230Z,94.70
2023-10-24T16:05:24.294Z,95.05
2023-10-24T16:07:51.448Z,96.36
2023-10-24T16:10:21.598Z,97.41
2023-10-24T16:12:50.123Z,97.39
2023-10-24T16:15:17.366Z,96.81
2023-10-24T16:17:44.236Z,96.78
2023-10-24T16:20:12.590Z,96.74
2023-10-24T16:22:39.748Z,96.28
2023-10-24T16:25:08.878Z,96.34
2023-10-24T16:27:36.659Z,96.30
2023-10-24T16:30:07.420Z,96.44
2023-10-24T16:32:34.870Z,96.32
2023-10-24T16:35:02.498Z,96.01
2023-10-24T16:37:29.466Z,96.12
2023-10-24T16:39:57.524Z,95.53
2023-10-24T16:42:24.822Z,95.18
2023-10-24T16:44:52.382Z,95.72
2023-10-24T16:47:20.938Z,95.89
2023-10-24T16:49:48.737Z,95.85
2023-10-24T16:52:16.169Z,95.95
2023-10-24T16:54:43.639Z,95.52
2023-10-24T16:57:11.635Z,95.79
2023-10-24T16:59:39.547Z,95.42
2023-10-24T17:02:07.309Z,95.48
2023-10-24T17:04:38.635Z,95.40
2023-10-24T17:07:05.940Z,95.11
2023-10-24T17:09:33.508Z,96.15
2023-10-24T17:12:00.816Z,95.99
2023-10-24T17:14:27.700Z,95.84
2023-10-24T17:16:56.545Z,95.91
2023-10-24T17:19:24.139Z,95.88
2023-10-24T17:21:52.818Z,95.79
2023-10-24T17:24:21.675Z,95.70
2023-10-24T17:26:49.001Z,95.44
2023-10-24T17:29:18.037Z,95.14
2023-10-24T17:31:45.124Z,94.65
2023-10-24T17:34:14.603Z,95.02
2023-10-24T17:36:41.880Z,94.47
2023-10-24T17:39:10.477Z,93.93
2023-10-24T17:41:37.412Z,93.85
2023-10-24T17:44:04.893Z,93.51
2023-10-24T17:46:31.859Z,93.17
2023-10-24T17:48:59.571Z,92.68
2023-10-24T17:51:26.479Z,92.86
2023-10-24T17:53:54.180Z,92.06
2023-10-24T17:56:24.067Z,91.62
2023-10-24T17:58:51.175Z,91.14
2023-10-24T18:01:18.321Z,91.34
2023-10-24T18:03:45.897Z,91.29
2023-10-24T18:06:16.189Z,90.80
2023-10-24T18:08:43.268Z,90.69
2023-10-24T18:11:18.175Z,90.55
2023-10-24T18:13:46.918Z,90.62
2023-10-24T18:16:15.669Z,90.26
2023-10-24T18:18:43.012Z,90.30
2023-10-24T18:21:13.715Z,89.90
2023-10-24T18:23:43.098Z,89.77
2023-10-24T18:26:10.609Z,89.45
2023-10-24T18:28:38.206Z,89.13
2023-10-24T18:31:06.972Z,88.94
2023-10-24T18:33:37.415Z,89.23
2023-10-24T18:36:07.684Z,89.34
2023-10-24T18:38:38.956Z,89.29
2023-10-24T18:41:06.128Z,88.74
2023-10-24T18:43:35.110Z,88.83
2023-10-24T18:46:06.899Z,88.67
2023-10-24T18:48:35.685Z,88.85
2023-10-24T18:51:13.218Z,89.19
2023-10-24T18:53:48.553Z,89.04
2023-10-24T18:56:20.562Z,88.88
2023-10-24T18:58:51.669Z,89.04
2023-10-24T19:04:10.012Z,89.45
2023-10-24T19:06:40.155Z,88.93
2023-10-24T19:09:07.630Z,89.00
2023-10-24T19:11:35.430Z,89.45
2023-10-24T19:14:03.571Z,89.54
2023-10-24T19:16:36.425Z,89.15
2023-10-24T19:19:04.213Z,89.21
2023-10-24T19:21:31.833Z,89.56
2023-10-24T19:24:01.231Z,89.47
2023-10-24T19:26:31.872Z,88.78
2023-10-24T19:28:59.839Z,89.08
2023-10-24T19:31:28.000Z,89.33
2023-10-24T19:33:58.262Z,89.26
2023-10-24T19:36:26.581Z,88.93
2023-10-24T19:38:54.315Z,89.49
2023-10-24T19:41:23.982Z,89.29
2023-10-24T19:43:51.967Z,89.64
2023-10-24T19:46:25.357Z,89.72
2023-10-24T19:48:53.697Z,89.49
2023-10-24T19:51:23.588Z,89.85
2023-10-24T19:53:51.494Z,89.44
2023-10-24T19:56:21.239Z,89.33
2023-10-24T19:58:51.911Z,90.20
2023-10-24T20:01:19.966Z,90.11
2023-10-24T20:03:48.691Z,89.69
2023-10-24T20:06:16.798Z,90.26
2023-10-24T20:08:46.532Z,89.90
2023-10-24T20:12:33.684Z,89.83
2023-10-24T20:14:02.741Z,91.42
2023-10-24T20:16:34.311Z,91.58
2023-10-24T20:19:02.349Z,91.43
2023-10-24T20:21:31.079Z,91.34
2023-10-24T20:24:00.401Z,92.16
2023-10-24T20:26:28.374Z,92.47
2023-10-24T20:28:55.458Z,92.37
2023-10-24T20:31:22.449Z,92.61
2023-10-24T20:33:49.948Z,92.08
2023-10-24T20:36:17.018Z,91.96
2023-10-24T20:38:44.150Z,92.26
2023-10-24T20:41:13.281Z,91.59
2023-10-24T20:43:40.327Z,91.52
2023-10-24T20:46:07.749Z,93.02
2023-10-24T20:48:36.283Z,92.88
2023-10-24T20:51:03.683Z,93.09
2023-10-24T20:53:31.313Z,92.98
2023-10-24T20:56:00.789Z,92.39
2023-10-24T20:58:29.716Z,92.84
2023-10-24T21:00:57.030Z,92.82
2023-10-24T21:03:24.276Z,92.70
2023-10-24T21:05:51.240Z,91.84
2023-10-24T21:08:21.224Z,92.42
2023-10-24T21:10:55.527Z,92.97
2023-10-24T21:13:24.158Z,93.15
2023-10-24T21:15:57.348Z,92.95
2023-10-24T21:18:24.931Z,93.13
2023-10-24T21:20:52.649Z,92.91
2023-10-24T21:23:19.828Z,93.03
2023-10-24T21:25:49.407Z,93.77
2023-10-24T21:28:18.011Z,94.07
2023-10-24T21:30:47.359Z,93.70
2023-10-24T21:33:16.245Z,93.71
2023-10-24T21:35:43.712Z,93.55
2023-10-24T21:38:11.004Z,93.42
2023-10-24T21:40:38.291Z,92.75
2023-10-24T21:43:07.792Z,92.23
2023-10-24T21:45:34.852Z,92.48
2023-10-24T21:48:01.812Z,92.82
2023-10-24T21:50:30.542Z,92.93
2023-10-24T21:52:57.667Z,92.10
2023-10-24T21:55:24.692Z,92.24
2023-10-24T21:57:51.709Z,91.58
2023-10-24T22:00:19.054Z,91.71
2023-10-24T22:02:46.469Z,91.13
2023-10-24T22:05:13.970Z,90.78
2023-10-24T22:07:42.685Z,92.11
2023-10-24T22:10:10.468Z,92.36
2023-10-24T22:12:38.416Z,92.29
2023-10-24T22:15:14.106Z,92.04
2023-10-24T22:17:42.356Z,91.89
2023-10-24T22:20:10.734Z,91.93
2023-10-24T22:22:38.008Z,91.36
2023-10-24T22:25:08.245Z,91.27
2023-10-24T22:27:35.579Z,92.00
2023-10-24T22:30:03.641Z,92.34
2023-10-24T22:32:32.182Z,93.16
2023-10-24T22:34:59.234Z,94.28
2023-10-24T22:37:27.129Z,95.55
2023-10-24T22:39:54.259Z,95.83
2023-10-24T22:42:23.873Z,96.02
2023-10-24T22:44:50.914Z,96.81
2023-10-24T22:47:17.923Z,96.87
2023-10-24T22:49:50.034Z,96.71
2023-10-24T22:52:17.018Z,95.85
2023-10-24T22:54:44.684Z,96.13
2023-10-24T22:57:11.870Z,95.63
2023-10-24T22:59:40.376Z,95.35
2023-10-24T23:02:07.759Z,94.78
2023-10-24T23:04:34.688Z,94.51
2023-10-24T23:07:03.939Z,94.08
2023-10-24T23:09:31.260Z,94.17
2023-10-24T23:11:58.236Z,93.80
2023-10-24T23:14:25.448Z,94.39
2023-10-24T23:16:56.378Z,94.09
2023-10-24T23:19:23.588Z,94.20
2023-10-24T23:21:58.484Z,94.27
2023-10-24T23:24:27.456Z,94.26
2023-10-24T23:26:56.036Z,94.14
2023-10-24T23:29:23.482Z,94.10
2023-10-24T23:31:52.448Z,94.82
2023-10-24T23:34:24.612Z,94.74
2023-10-24T23:36:51.665Z,95.05
2023-10-24T23:39:19.261Z,95.93
2023-10-24T23:41:47.799Z,96.18
2023-10-24T23:44:15.099Z,97.13
2023-10-24T23:46:42.388Z,97.32
2023-10-24T23:49:09.340Z,96.62
2023-10-24T23:51:38.274Z,95.87
2023-10-24T23:54:06.345Z,95.63
2023-10-24T23:56:33.411Z,95.86
2023-10-24T23:59:01.823Z,95.59
